createdAt,value
2019-05-05T00:00:35.203Z,88.15
2019-05-05T00:03:09.443Z,87.45
2019-05-05T00:05:40.712Z,86.85
2019-05-05T00:08:10.851Z,86.99
2019-05-05T00:10:58.332Z,87.80
2019-05-05T00:13:34.558Z,88.07
2019-05-05T00:16:21.457Z,88.50
2019-05-05T00:18:54.282Z,88.13
2019-05-05T00:21:24.453Z,87.85
2019-05-05T00:23:55.350Z,87.81
2019-05-05T00:26:25.095Z,87.74
2019-05-05T00:28:55.374Z,88.17
2019-05-05T00:31:25.130Z,88.30
2019-05-05T00:33:54.863Z,88.45
2019-05-05T00:36:24.739Z,88.79
2019-05-05T00:38:55.294Z,88.86
2019-05-05T00:41:25.469Z,88.56
2019-05-05T00:43:55.487Z,88.75
2019-05-05T00:46:32.456Z,88.75
2019-05-05T00:49:02.084Z,89.10
2019-05-05T00:51:31.744Z,89.01
2019-05-05T00:54:01.369Z,88.75
2019-05-05T00:56:31.021Z,88.47
2019-05-05T00:59:04.471Z,87.97
2019-05-05T01:01:44.874Z,88.72
2019-05-05T01:04:16.283Z,88.07
2019-05-05T01:06:45.921Z,88.22
2019-05-05T01:09:20.196Z,88.68
2019-05-05T01:11:49.857Z,89.59
2019-05-05T01:14:19.552Z,89.82
2019-05-05T01:16:49.305Z,90.31
2019-05-05T01:19:18.932Z,89.79
2019-05-05T01:21:50.022Z,90.31
2019-05-05T01:24:19.648Z,89.10
2019-05-05T01:26:49.294Z,89.26
2019-05-05T01:29:18.920Z,89.41
2019-05-05T01:31:48.581Z,88.82
2019-05-05T01:34:28.537Z,88.57
2019-05-05T01:36:59.826Z,88.63
2019-05-05T01:39:36.824Z,88.78
2019-05-05T01:42:14.391Z,88.21
2019-05-05T01:44:44.820Z,88.53
2019-05-05T01:47:14.866Z,88.44
2019-05-05T01:49:45.638Z,88.21
2019-05-05T01:52:15.262Z,87.38
2019-05-05T01:54:44.914Z,87.34
2019-05-05T01:57:15.054Z,86.40
2019-05-05T01:59:45.006Z,85.97
2019-05-05T02:02:14.834Z,86.20
2019-05-05T02:04:44.906Z,86.23
2019-05-05T02:07:14.780Z,86.13
2019-05-05T02:09:45.087Z,86.20
2019-05-05T02:12:15.896Z,85.81
2019-05-05T02:14:45.741Z,85.48
2019-05-05T02:17:15.429Z,85.47
2019-05-05T02:19:45.089Z,85.38
2019-05-05T02:22:14.882Z,85.84
2019-05-05T02:24:44.644Z,85.43
2019-05-05T02:27:14.814Z,85.67
2019-05-05T02:29:55.142Z,85.53
2019-05-05T02:32:29.371Z,86.12
2019-05-05T02:35:00.660Z,86.58
2019-05-05T02:37:30.276Z,86.82
2019-05-05T02:40:06.392Z,86.92
2019-05-05T02:42:31.718Z,86.66
2019-05-05T02:45:05.553Z,86.88
2019-05-05T02:47:56.048Z,87.03
2019-05-05T02:50:46.683Z,87.27
2019-05-05T02:53:04.038Z,86.91
2019-05-05T02:55:34.819Z,87.00
2019-05-05T02:58:04.635Z,87.10
2019-05-05T03:00:36.002Z,86.64
2019-05-05T03:03:07.429Z,86.68
2019-05-05T03:05:37.248Z,86.54
2019-05-05T03:08:07.823Z,86.43
2019-05-05T03:10:37.644Z,87.02
2019-05-05T03:13:07.440Z,86.98
2019-05-05T03:15:48.667Z,86.60
2019-05-05T03:18:18.635Z,86.44
2019-05-05T03:21:01.568Z,86.91
2019-05-05T03:23:20.817Z,86.94
2019-05-05T03:25:51.005Z,87.77
2019-05-05T03:28:20.710Z,86.44
2019-05-05T03:30:50.489Z,86.22
2019-05-05T03:33:20.194Z,86.96
2019-05-05T03:35:49.833Z,85.96
2019-05-05T03:38:19.628Z,85.29
2019-05-05T03:40:50.983Z,85.47
2019-05-05T03:43:23.674Z,85.03
2019-05-05T03:45:55.120Z,85.19
2019-05-05T03:48:24.827Z,85.87
2019-05-05T03:50:54.845Z,85.29
2019-05-05T03:53:25.562Z,86.28
2019-05-05T03:55:55.356Z,86.45
2019-05-05T03:58:25.560Z,85.86
2019-05-05T04:01:20.306Z,86.38
2019-05-05T04:03:49.956Z,84.92
2019-05-05T04:06:21.215Z,84.87
2019-05-05T04:08:51.046Z,85.55
2019-05-05T04:11:20.692Z,86.33
2019-05-05T04:13:50.411Z,85.03
2019-05-05T04:16:24.589Z,85.17
2019-05-05T04:19:03.552Z,85.44
2019-05-05T04:21:36.522Z,84.66
2019-05-05T04:24:04.595Z,84.94
2019-05-05T04:26:34.218Z,85.00
2019-05-05T04:29:05.344Z,84.65
2019-05-05T04:31:35.168Z,84.49
2019-05-05T04:34:04.815Z,84.01
2019-05-05T04:36:34.436Z,83.99
2019-05-05T04:39:06.500Z,83.72
2019-05-05T04:41:36.290Z,84.07
2019-05-05T04:44:05.939Z,84.49
2019-05-05T04:46:35.564Z,84.46
2019-05-05T04:49:06.916Z,85.06
2019-05-05T04:51:47.757Z,85.29
2019-05-05T04:54:19.092Z,85.77
2019-05-05T04:56:48.711Z,85.69
2019-05-05T04:59:18.361Z,85.25
2019-05-05T05:01:49.616Z,85.69
2019-05-05T05:04:20.896Z,85.63
2019-05-05T05:06:54.234Z,85.63
2019-05-05T05:09:23.916Z,85.73
2019-05-05T05:11:54.727Z,85.94
2019-05-05T05:14:24.773Z,85.74
2019-05-05T05:16:55.746Z,86.50
2019-05-05T05:19:25.565Z,86.71
2019-05-05T05:22:01.607Z,87.35
2019-05-05T05:24:26.527Z,87.38
2019-05-05T05:26:56.239Z,86.71
2019-05-05T05:29:25.855Z,86.18
2019-05-05T05:31:55.575Z,86.20
2019-05-05T05:34:25.189Z,84.94
2019-05-05T05:36:55.008Z,86.33
2019-05-05T05:39:26.261Z,84.75
2019-05-05T05:41:55.905Z,85.99
2019-05-05T05:44:44.428Z,85.63
2019-05-05T05:47:33.731Z,86.31
2019-05-05T05:50:16.921Z,85.90
2019-05-05T05:52:46.563Z,84.77
2019-05-05T05:55:16.182Z,84.48
2019-05-05T05:57:45.828Z,85.36
2019-05-05T06:00:15.586Z,84.42
2019-05-05T06:02:45.223Z,83.69
2019-05-05T06:05:15.220Z,83.88
2019-05-05T06:07:44.859Z,83.80
2019-05-05T06:10:23.697Z,84.62
2019-05-05T06:12:45.884Z,83.66
2019-05-05T06:15:15.746Z,84.28
2019-05-05T06:17:45.393Z,83.77
2019-05-05T06:20:15.080Z,84.02
2019-05-05T06:22:44.807Z,82.18
2019-05-05T06:25:15.951Z,83.49
2019-05-05T06:27:45.900Z,82.55
2019-05-05T06:30:15.855Z,82.91
2019-05-05T06:32:45.813Z,83.95
2019-05-05T06:35:15.560Z,82.64
2019-05-05T06:37:54.761Z,81.83
2019-05-05T06:40:29.171Z,81.22
2019-05-05T06:43:06.397Z,80.45
2019-05-05T06:45:44.341Z,81.03
2019-05-05T06:48:14.107Z,77.53
2019-05-05T06:50:43.882Z,77.92
2019-05-05T06:53:13.703Z,78.02
2019-05-05T06:55:44.470Z,77.00
2019-05-05T06:58:14.193Z,79.29
2019-05-05T07:00:44.209Z,76.82
2019-05-05T07:03:14.060Z,75.89
2019-05-05T07:05:43.976Z,77.54
2019-05-05T07:08:13.940Z,75.57
2019-05-05T07:10:44.490Z,73.68
2019-05-05T07:13:14.205Z,71.66
2019-05-05T07:15:43.978Z,74.44
2019-05-05T07:18:14.280Z,73.96
2019-05-05T07:20:44.230Z,73.34
2019-05-05T07:23:14.604Z,71.78
2019-05-05T07:25:46.064Z,71.77
2019-05-05T07:28:15.811Z,69.37
2019-05-05T07:30:45.446Z,67.27
2019-05-05T07:33:15.072Z,68.08
2019-05-05T07:35:56.074Z,67.99
2019-05-05T07:38:17.967Z,67.01
2019-05-05T07:40:47.609Z,69.31
2019-05-05T07:43:17.229Z,68.52
2019-05-05T07:45:46.869Z,66.17
2019-05-05T07:48:16.488Z,69.82
2019-05-05T07:50:58.674Z,70.21
2019-05-05T07:53:17.952Z,67.33
2019-05-05T07:55:47.686Z,65.09
2019-05-05T07:58:17.310Z,63.69
2019-05-05T08:00:46.953Z,66.19
2019-05-05T08:03:16.578Z,67.69
2019-05-05T08:05:46.221Z,61.32
2019-05-05T08:08:15.835Z,61.26
2019-05-05T08:10:45.480Z,65.43
2019-05-05T08:13:15.119Z,63.56
2019-05-05T08:15:56.829Z,63.23
2019-05-05T08:18:24.196Z,61.49
2019-05-05T08:21:00.707Z,61.91
2019-05-05T08:23:35.571Z,62.10
2019-05-05T08:26:06.947Z,60.63
2019-05-05T08:28:50.140Z,58.63
2019-05-05T08:31:21.429Z,56.42
2019-05-05T08:33:51.050Z,56.71
2019-05-05T08:36:20.698Z,57.44
2019-05-05T08:38:50.327Z,54.73
2019-05-05T08:41:19.986Z,54.05
2019-05-05T08:43:49.602Z,53.99
2019-05-05T08:46:19.253Z,52.45
2019-05-05T08:48:48.876Z,51.42
2019-05-05T08:51:18.524Z,52.05
2019-05-05T08:53:48.578Z,50.58
2019-05-05T08:56:18.183Z,49.95
2019-05-05T08:58:49.769Z,48.19
2019-05-05T09:01:19.177Z,46.87
2019-05-05T09:03:48.832Z,53.16
2019-05-05T09:06:18.448Z,51.91
2019-05-05T09:08:48.104Z,53.19
2019-05-05T09:11:17.725Z,47.34
2019-05-05T09:13:47.369Z,46.13
2019-05-05T09:16:17.088Z,50.00
2019-05-05T09:19:00.512Z,47.68
2019-05-05T09:21:30.132Z,50.43
2019-05-05T09:24:04.689Z,47.68
2019-05-05T09:26:37.327Z,49.99
2019-05-05T09:29:24.268Z,46.40
2019-05-05T09:31:54.132Z,45.44
2019-05-05T09:34:24.080Z,45.22
2019-05-05T09:36:54.481Z,45.58
2019-05-05T09:39:24.157Z,49.72
2019-05-05T09:41:53.997Z,47.33
2019-05-05T09:44:24.247Z,46.19
2019-05-05T09:46:54.046Z,46.38
2019-05-05T09:49:24.655Z,45.23
2019-05-05T09:51:54.621Z,47.61
2019-05-05T09:54:24.459Z,43.83
2019-05-05T09:56:54.419Z,43.82
2019-05-05T09:59:24.187Z,43.98
2019-05-05T10:01:54.012Z,46.75
2019-05-05T10:04:24.908Z,44.79
2019-05-05T10:06:54.543Z,47.72
2019-05-05T10:09:24.295Z,45.28
2019-05-05T10:11:54.162Z,43.84
2019-05-05T10:14:23.824Z,44.24
2019-05-05T10:16:54.083Z,43.80
2019-05-05T10:19:24.336Z,43.45
2019-05-05T10:21:54.086Z,44.66
2019-05-05T10:24:30.993Z,45.57
2019-05-05T10:27:00.439Z,42.40
2019-05-05T10:29:30.119Z,43.05
2019-05-05T10:31:59.719Z,41.72
2019-05-05T10:34:29.368Z,42.78
2019-05-05T10:36:59.000Z,42.37
2019-05-05T10:39:30.303Z,43.85
2019-05-05T10:41:59.931Z,44.98
2019-05-05T10:44:29.579Z,43.14
2019-05-05T10:46:59.208Z,43.42
2019-05-05T10:49:28.863Z,39.85
2019-05-05T10:51:58.484Z,41.28
2019-05-05T10:54:40.529Z,42.74
2019-05-05T10:56:59.481Z,41.80
2019-05-05T10:59:29.123Z,40.92
2019-05-05T11:01:58.771Z,41.83
2019-05-05T11:04:28.396Z,41.96
2019-05-05T11:06:58.166Z,40.92
2019-05-05T11:09:27.892Z,41.58
2019-05-05T11:11:57.544Z,39.51
2019-05-05T11:14:27.167Z,39.58
2019-05-05T11:16:56.826Z,42.26
2019-05-05T11:19:26.514Z,39.11
2019-05-05T11:21:56.166Z,41.46
2019-05-05T11:24:25.899Z,40.60
2019-05-05T11:26:55.551Z,42.11
2019-05-05T11:29:25.181Z,39.92
2019-05-05T11:31:55.310Z,43.26
2019-05-05T11:34:26.704Z,40.31
2019-05-05T11:36:58.003Z,43.13
2019-05-05T11:39:27.629Z,41.54
2019-05-05T11:41:57.274Z,39.98
2019-05-05T11:44:26.896Z,38.67
2019-05-05T11:46:56.623Z,38.57
2019-05-05T11:49:26.246Z,39.38
2019-05-05T11:51:56.000Z,38.81
2019-05-05T11:54:25.636Z,39.05
2019-05-05T11:56:55.384Z,41.44
2019-05-05T11:59:25.009Z,38.99
2019-05-05T12:01:55.161Z,37.39
2019-05-05T12:04:24.867Z,36.04
2019-05-05T12:06:54.536Z,38.48
2019-05-05T12:09:25.930Z,37.49
2019-05-05T12:11:55.576Z,35.57
2019-05-05T12:14:27.427Z,37.07
2019-05-05T12:16:57.077Z,33.73
2019-05-05T12:19:26.730Z,35.52
2019-05-05T12:21:56.362Z,33.61
2019-05-05T12:24:27.645Z,33.65
2019-05-05T12:27:04.816Z,31.85
2019-05-05T12:29:35.542Z,35.08
2019-05-05T12:32:05.160Z,34.89
2019-05-05T12:34:34.809Z,34.04
2019-05-05T12:37:05.275Z,37.36
2019-05-05T12:39:35.071Z,37.08
2019-05-05T12:42:05.063Z,36.44
2019-05-05T12:44:36.439Z,36.13
2019-05-05T12:47:24.091Z,37.34
2019-05-05T12:49:54.513Z,36.24
2019-05-05T12:52:24.253Z,35.69
2019-05-05T12:54:54.603Z,34.17
2019-05-05T12:57:24.302Z,33.29
2019-05-05T12:59:53.948Z,31.41
2019-05-05T13:02:23.920Z,35.50
2019-05-05T13:04:53.659Z,36.10
2019-05-05T13:07:24.708Z,34.13
2019-05-05T13:09:56.506Z,37.06
2019-05-05T13:12:26.125Z,36.64
2019-05-05T13:14:55.862Z,35.97
2019-05-05T13:17:25.481Z,36.16
2019-05-05T13:19:56.765Z,36.59
2019-05-05T13:22:39.867Z,37.37
2019-05-05T13:25:11.243Z,36.88
2019-05-05T13:27:42.506Z,36.36
2019-05-05T13:30:12.416Z,34.97
2019-05-05T13:32:43.977Z,35.43
2019-05-05T13:35:14.366Z,36.68
2019-05-05T13:37:44.426Z,37.10
2019-05-05T13:40:14.520Z,34.83
2019-05-05T13:42:44.217Z,34.76
2019-05-05T13:45:27.813Z,33.45
2019-05-05T13:47:57.460Z,36.37
2019-05-05T13:50:34.507Z,36.97
2019-05-05T13:53:04.196Z,36.35
2019-05-05T13:55:34.666Z,38.05
2019-05-05T13:58:04.525Z,36.72
2019-05-05T14:00:34.155Z,36.29
2019-05-05T14:03:04.101Z,37.13
2019-05-05T14:05:34.522Z,37.59
2019-05-05T14:08:04.355Z,37.93
2019-05-05T14:10:33.960Z,37.29
2019-05-05T14:13:03.843Z,37.58
2019-05-05T14:15:34.169Z,36.73
2019-05-05T14:18:03.991Z,36.22
2019-05-05T14:20:34.543Z,34.71
2019-05-05T14:23:04.452Z,33.22
2019-05-05T14:25:34.081Z,34.23
2019-05-05T14:28:04.003Z,34.29
2019-05-05T14:30:35.346Z,34.32
2019-05-05T14:33:05.745Z,34.99
2019-05-05T14:35:39.943Z,34.76
2019-05-05T14:38:11.249Z,36.38
2019-05-05T14:40:40.886Z,36.59
2019-05-05T14:43:10.553Z,34.81
2019-05-05T14:45:40.195Z,33.85
2019-05-05T14:48:09.929Z,33.87
2019-05-05T14:50:39.563Z,36.74
2019-05-05T14:53:09.214Z,38.31
2019-05-05T14:55:38.850Z,38.52
2019-05-05T14:58:08.512Z,36.40
2019-05-05T15:00:39.557Z,34.84
2019-05-05T15:03:09.294Z,38.19
2019-05-05T15:05:49.627Z,35.67
2019-05-05T15:08:24.207Z,37.62
2019-05-05T15:10:58.333Z,35.97
2019-05-05T15:13:28.073Z,35.81
2019-05-05T15:15:57.736Z,37.67
2019-05-05T15:18:27.378Z,37.85
2019-05-05T15:20:57.031Z,36.74
2019-05-05T15:23:26.651Z,38.67
2019-05-05T15:25:56.310Z,37.31
2019-05-05T15:28:25.937Z,37.24
2019-05-05T15:30:55.608Z,38.39
2019-05-05T15:33:25.356Z,39.75
2019-05-05T15:35:55.168Z,37.95
2019-05-05T15:38:24.800Z,37.82
2019-05-05T15:40:54.812Z,38.32
2019-05-05T15:43:24.560Z,38.70
2019-05-05T15:45:54.396Z,36.55
2019-05-05T15:48:24.023Z,36.99
2019-05-05T15:50:54.636Z,37.08
2019-05-05T15:53:24.378Z,36.16
2019-05-05T15:55:55.504Z,34.61
2019-05-05T15:58:25.569Z,34.07
2019-05-05T16:00:55.434Z,33.06
2019-05-05T16:03:25.563Z,33.39
2019-05-05T16:05:55.220Z,33.23
2019-05-05T16:08:24.854Z,30.57
2019-05-05T16:10:54.767Z,31.62
2019-05-05T16:13:24.529Z,31.54
2019-05-05T16:15:58.530Z,33.13
2019-05-05T16:18:29.825Z,34.38
2019-05-05T16:21:10.036Z,33.70
2019-05-05T16:23:44.006Z,34.74
2019-05-05T16:26:13.989Z,35.05
2019-05-05T16:28:44.564Z,35.65
2019-05-05T16:31:14.573Z,36.40
2019-05-05T16:33:44.269Z,36.69
2019-05-05T16:36:16.181Z,37.34
2019-05-05T16:38:45.806Z,36.57
2019-05-05T16:41:15.561Z,36.27
2019-05-05T16:43:45.196Z,37.62
2019-05-05T16:46:17.089Z,36.61
2019-05-05T16:48:46.186Z,38.02
2019-05-05T16:51:17.790Z,38.91
2019-05-05T16:53:47.424Z,38.06
2019-05-05T16:56:17.363Z,36.06
2019-05-05T16:58:46.999Z,34.47
2019-05-05T17:01:17.251Z,34.79
2019-05-05T17:03:46.877Z,32.48
2019-05-05T17:06:16.541Z,32.75
2019-05-05T17:08:46.162Z,31.40
2019-05-05T17:11:15.818Z,31.97
2019-05-05T17:14:04.922Z,32.31
2019-05-05T17:16:51.231Z,29.80
2019-05-05T17:19:25.100Z,31.16
2019-05-05T17:21:56.389Z,29.75
2019-05-05T17:24:26.045Z,27.94
2019-05-05T17:26:55.686Z,28.05
2019-05-05T17:29:25.563Z,28.29
2019-05-05T17:31:55.187Z,27.84
2019-05-05T17:34:24.892Z,30.89
2019-05-05T17:36:54.475Z,30.89
2019-05-05T17:39:25.954Z,32.48
2019-05-05T17:41:57.236Z,33.77
2019-05-05T17:44:28.533Z,33.22
2019-05-05T17:46:59.804Z,34.22
2019-05-05T17:49:37.089Z,34.26
2019-05-05T17:52:08.359Z,34.31
2019-05-05T17:54:39.663Z,34.28
2019-05-05T17:57:09.294Z,35.62
2019-05-05T17:59:38.957Z,35.29
2019-05-05T18:02:08.610Z,34.08
2019-05-05T18:04:38.928Z,34.56
2019-05-05T18:07:14.299Z,36.08
2019-05-05T18:09:57.751Z,35.84
2019-05-05T18:12:34.784Z,37.40
2019-05-05T18:15:09.763Z,37.33
2019-05-05T18:17:39.418Z,37.52
2019-05-05T18:20:09.280Z,37.84
2019-05-05T18:22:38.945Z,38.85
2019-05-05T18:25:08.574Z,39.05
2019-05-05T18:27:38.231Z,40.37
2019-05-05T18:30:08.109Z,38.69
2019-05-05T18:32:37.775Z,39.44
2019-05-05T18:35:07.409Z,43.27
2019-05-05T18:37:37.058Z,45.61
2019-05-05T18:40:07.623Z,46.79
2019-05-05T18:42:38.279Z,47.00
2019-05-05T18:45:12.736Z,48.86
2019-05-05T18:47:43.394Z,51.08
2019-05-05T18:50:13.602Z,52.36
2019-05-05T18:52:46.990Z,50.00
2019-05-05T18:55:14.708Z,48.96
2019-05-05T18:57:44.361Z,51.49
2019-05-05T19:00:16.061Z,49.21
2019-05-05T19:02:50.016Z,52.15
2019-05-05T19:05:29.783Z,50.46
2019-05-05T19:08:01.068Z,52.28
2019-05-05T19:10:30.802Z,55.67
2019-05-05T19:13:00.458Z,57.98
2019-05-05T19:15:30.097Z,59.10
2019-05-05T19:17:59.724Z,56.09
2019-05-05T19:20:47.252Z,58.50
2019-05-05T19:23:16.889Z,57.86
2019-05-05T19:25:46.548Z,58.33
2019-05-05T19:28:16.193Z,59.93
2019-05-05T19:30:45.829Z,58.20
2019-05-05T19:33:15.597Z,57.39
2019-05-05T19:35:47.261Z,58.53
2019-05-05T19:38:16.624Z,59.32
2019-05-05T19:40:46.308Z,61.49
2019-05-05T19:43:15.968Z,57.33
2019-05-05T19:45:45.616Z,57.65
2019-05-05T19:48:15.252Z,59.36
2019-05-05T19:50:49.493Z,58.49
2019-05-05T19:53:24.512Z,59.22
2019-05-05T19:55:55.345Z,60.65
2019-05-05T19:58:24.977Z,60.30
2019-05-05T20:00:56.514Z,61.86
2019-05-05T20:03:27.673Z,61.93
2019-05-05T20:05:57.399Z,62.04
2019-05-05T20:08:39.915Z,62.45
2019-05-05T20:10:59.377Z,58.88
2019-05-05T20:13:29.011Z,62.02
2019-05-05T20:16:14.002Z,60.89
2019-05-05T20:18:43.806Z,61.30
2019-05-05T20:21:14.513Z,60.28
2019-05-05T20:23:44.202Z,63.38
2019-05-05T20:26:14.494Z,63.10
2019-05-05T20:28:44.160Z,61.70
2019-05-05T20:31:14.274Z,63.27
2019-05-05T20:33:54.678Z,62.51
2019-05-05T20:36:32.090Z,62.15
2019-05-05T20:39:01.726Z,63.02
2019-05-05T20:41:31.379Z,61.96
2019-05-05T20:44:01.014Z,61.75
2019-05-05T20:46:30.652Z,61.95
2019-05-05T20:49:00.276Z,62.27
2019-05-05T20:51:29.925Z,64.08
2019-05-05T20:53:59.584Z,62.38
2019-05-05T20:56:29.214Z,63.85
2019-05-05T20:58:58.865Z,62.13
2019-05-05T21:01:28.491Z,63.54
2019-05-05T21:03:58.184Z,63.58
2019-05-05T21:06:27.818Z,62.85
2019-05-05T21:08:57.474Z,63.20
2019-05-05T21:11:27.109Z,64.17
2019-05-05T21:13:56.754Z,64.32
2019-05-05T21:16:26.378Z,64.54
2019-05-05T21:18:56.025Z,65.08
2019-05-05T21:21:27.286Z,65.97
2019-05-05T21:23:58.590Z,66.63
2019-05-05T21:26:46.077Z,67.29
2019-05-05T21:29:16.372Z,68.38
2019-05-05T21:31:45.997Z,68.05
2019-05-05T21:34:15.649Z,68.43
2019-05-05T21:36:45.290Z,69.13
2019-05-05T21:39:15.105Z,68.24
2019-05-05T21:41:44.703Z,68.10
2019-05-05T21:44:14.830Z,68.40
2019-05-05T21:46:44.438Z,68.24
2019-05-05T21:49:14.083Z,68.63
2019-05-05T21:51:48.297Z,67.73
2019-05-05T21:54:35.373Z,67.79
2019-05-05T21:57:14.085Z,68.83
2019-05-05T21:59:55.276Z,68.85
2019-05-05T22:02:15.386Z,69.15
2019-05-05T22:04:45.059Z,68.62
2019-05-05T22:07:14.680Z,69.69
2019-05-05T22:09:44.338Z,69.31
2019-05-05T22:12:13.968Z,69.24
2019-05-05T22:14:44.079Z,69.36
2019-05-05T22:17:14.680Z,70.05
2019-05-05T22:19:45.971Z,70.69
2019-05-05T22:22:16.902Z,71.19
2019-05-05T22:24:46.557Z,70.57
2019-05-05T22:27:16.275Z,70.94
2019-05-05T22:29:45.928Z,71.11
2019-05-05T22:32:15.651Z,70.65
2019-05-05T22:34:45.283Z,71.48
2019-05-05T22:37:14.913Z,71.20
2019-05-05T22:39:44.644Z,69.96
2019-05-05T22:42:15.800Z,70.74
2019-05-05T22:44:45.607Z,71.10
2019-05-05T22:47:15.365Z,70.57
2019-05-05T22:49:45.157Z,70.44
2019-05-05T22:52:15.119Z,71.60
2019-05-05T22:54:44.732Z,71.50
2019-05-05T22:57:14.377Z,71.10
2019-05-05T22:59:44.099Z,70.96
2019-05-05T23:02:15.485Z,72.11
2019-05-05T23:04:49.449Z,72.03
2019-05-05T23:07:26.489Z,72.94
2019-05-05T23:09:56.208Z,72.69
2019-05-05T23:12:26.006Z,73.36
2019-05-05T23:14:55.643Z,72.99
2019-05-05T23:17:29.544Z,73.72
2019-05-05T23:20:04.791Z,74.31
2019-05-05T23:22:48.522Z,74.65
2019-05-05T23:25:19.753Z,74.68
2019-05-05T23:27:50.230Z,75.25
2019-05-05T23:30:23.917Z,75.56
2019-05-05T23:32:54.868Z,74.88
2019-05-05T23:35:24.612Z,75.03
2019-05-05T23:37:55.258Z,74.78
2019-05-05T23:40:27.179Z,75.69
2019-05-05T23:42:56.998Z,75.40
2019-05-05T23:45:26.647Z,75.44
2019-05-05T23:47:56.309Z,75.56
2019-05-05T23:50:25.941Z,75.44
2019-05-05T23:52:55.607Z,75.16
2019-05-05T23:55:25.549Z,75.22
2019-05-05T23:57:55.201Z,76.32
